createdAt,value
2022-11-24T00:00:50.915Z,5.76
2022-11-24T00:03:17.460Z,5.77
2022-11-24T00:05:44.223Z,5.79
2022-11-24T00:08:10.734Z,5.76
2022-11-24T00:10:37.094Z,5.84
2022-11-24T00:13:03.509Z,5.89
2022-11-24T00:15:29.917Z,5.90
2022-11-24T00:17:56.449Z,5.85
2022-11-24T00:20:22.834Z,5.93
2022-11-24T00:22:49.196Z,5.85
2022-11-24T00:25:15.550Z,5.81
2022-11-24T00:27:41.880Z,5.79
2022-11-24T00:30:09.839Z,5.75
2022-11-24T00:32:36.178Z,5.71
2022-11-24T00:35:02.535Z,5.65
2022-11-24T00:37:28.960Z,5.67
2022-11-24T00:39:55.311Z,5.56
2022-11-24T00:42:21.657Z,5.55
2022-11-24T00:44:48.003Z,5.48
2022-11-24T00:47:14.443Z,5.44
2022-11-24T00:49:40.887Z,5.43
2022-11-24T00:52:07.240Z,5.47
2022-11-24T00:54:33.800Z,5.40
2022-11-24T00:57:00.432Z,5.41
2022-11-24T00:59:26.827Z,5.28
2022-11-24T01:01:53.220Z,5.26
2022-11-24T01:04:19.616Z,5.22
2022-11-24T01:06:45.965Z,5.34
2022-11-24T01:09:12.351Z,5.25
2022-11-24T01:11:57.741Z,5.24
2022-11-24T01:14:25.371Z,5.28
2022-11-24T01:16:52.165Z,5.28
2022-11-24T01:19:18.689Z,5.38
2022-11-24T01:21:45.176Z,5.32
2022-11-24T01:24:11.886Z,5.36
2022-11-24T01:26:38.497Z,5.37
2022-11-24T01:29:05.119Z,5.41
2022-11-24T01:31:32.671Z,5.36
2022-11-24T01:33:59.136Z,5.60
2022-11-24T01:36:25.568Z,5.56
2022-11-24T01:38:51.943Z,5.61
2022-11-24T01:41:24.081Z,5.57
2022-11-24T01:43:52.091Z,5.62
2022-11-24T01:46:28.733Z,5.64
2022-11-24T01:49:05.424Z,5.64
2022-11-24T01:51:35.697Z,5.72
2022-11-24T01:54:11.594Z,5.77
2022-11-24T01:56:42.521Z,5.76
2022-11-24T01:59:11.925Z,5.76
2022-11-24T02:01:38.360Z,5.76
2022-11-24T02:04:10.071Z,5.72
2022-11-24T02:06:38.823Z,5.82
2022-11-24T02:09:24.083Z,5.73
2022-11-24T02:11:51.894Z,5.67
2022-11-24T02:14:19.400Z,5.79
2022-11-24T02:16:49.932Z,5.81
2022-11-24T02:19:33.660Z,5.89
2022-11-24T02:22:01.498Z,5.85
2022-11-24T02:24:49.662Z,5.90
2022-11-24T02:27:16.116Z,5.90
2022-11-24T02:29:42.705Z,5.93
2022-11-24T02:32:10.640Z,5.89
2022-11-24T02:34:37.009Z,5.85
2022-11-24T02:37:03.488Z,5.85
2022-11-24T02:39:29.847Z,5.82
2022-11-24T02:42:01.468Z,5.65
2022-11-24T02:44:32.728Z,5.58
2022-11-24T02:47:04.415Z,5.63
2022-11-24T02:49:30.770Z,5.54
2022-11-24T02:51:57.178Z,5.51
2022-11-24T02:54:23.746Z,5.32
2022-11-24T02:56:50.124Z,5.32
2022-11-24T02:59:16.453Z,5.22
2022-11-24T03:01:42.849Z,5.13
2022-11-24T03:04:09.267Z,5.19
2022-11-24T03:06:35.648Z,5.36
2022-11-24T03:09:02.060Z,5.29
2022-11-24T03:11:28.427Z,5.25
2022-11-24T03:13:54.832Z,5.21
2022-11-24T03:16:21.609Z,5.25
2022-11-24T03:18:50.926Z,5.28
2022-11-24T03:21:17.312Z,5.26
2022-11-24T03:23:43.677Z,5.28
2022-11-24T03:26:12.138Z,5.25
2022-11-24T03:28:38.998Z,5.27
2022-11-24T03:31:06.437Z,5.32
2022-11-24T03:33:32.964Z,5.34
2022-11-24T03:35:59.610Z,5.33
2022-11-24T03:38:26.043Z,5.43
2022-11-24T03:40:52.506Z,5.42
2022-11-24T03:43:19.179Z,5.53
2022-11-24T03:45:46.800Z,5.62
2022-11-24T03:48:14.307Z,5.61
2022-11-24T03:50:40.766Z,5.61
2022-11-24T03:53:07.274Z,5.72
2022-11-24T03:55:33.611Z,5.74
2022-11-24T03:58:00.134Z,5.82
2022-11-24T04:00:26.694Z,5.81
2022-11-24T04:02:53.556Z,5.81
2022-11-24T04:05:20.227Z,5.89
2022-11-24T04:07:46.613Z,5.92
2022-11-24T04:10:13.301Z,5.96
2022-11-24T04:12:45.382Z,6.10
2022-11-24T04:15:13.686Z,6.11
2022-11-24T04:17:40.132Z,6.17
2022-11-24T04:20:07.654Z,6.23
2022-11-24T04:22:34.081Z,6.18
2022-11-24T04:25:00.425Z,6.13
2022-11-24T04:27:26.831Z,6.22
2022-11-24T04:29:53.165Z,6.29
2022-11-24T04:32:19.554Z,6.25
2022-11-24T04:34:45.955Z,6.31
2022-11-24T04:37:12.504Z,6.36
2022-11-24T04:39:38.856Z,6.32
2022-11-24T04:42:06.135Z,6.26
2022-11-24T04:44:33.054Z,6.31
2022-11-24T04:47:00.868Z,6.29
2022-11-24T04:49:27.407Z,6.30
2022-11-24T04:51:53.778Z,6.19
2022-11-24T04:54:20.250Z,6.17
2022-11-24T04:56:51.725Z,6.26
2022-11-24T04:59:19.352Z,6.31
2022-11-24T05:01:46.928Z,6.35
2022-11-24T05:04:15.557Z,6.28
2022-11-24T05:06:42.170Z,6.22
2022-11-24T05:09:13.350Z,6.36
2022-11-24T05:11:39.724Z,6.35
2022-11-24T05:14:06.078Z,6.34
2022-11-24T05:16:32.593Z,6.25
2022-11-24T05:18:58.990Z,6.23
2022-11-24T05:21:25.347Z,6.24
2022-11-24T05:23:51.752Z,6.23
2022-11-24T05:26:18.336Z,6.32
2022-11-24T05:28:44.717Z,6.27
2022-11-24T05:31:11.148Z,6.34
2022-11-24T05:33:38.197Z,6.42
2022-11-24T05:36:06.583Z,6.27
2022-11-24T05:38:33.778Z,6.22
2022-11-24T05:41:03.587Z,6.20
2022-11-24T05:43:30.004Z,6.21
2022-11-24T05:46:00.403Z,6.21
2022-11-24T05:48:26.987Z,6.19
2022-11-24T05:50:55.543Z,6.15
2022-11-24T05:53:22.419Z,6.25
2022-11-24T05:55:48.805Z,6.19
2022-11-24T05:58:15.188Z,6.19
2022-11-24T06:00:41.543Z,6.10
2022-11-24T06:03:10.276Z,6.09
2022-11-24T06:05:36.729Z,6.08
2022-11-24T06:08:03.798Z,6.11
2022-11-24T06:10:30.468Z,6.01
2022-11-24T06:12:56.962Z,6.00
2022-11-24T06:15:23.610Z,6.04
2022-11-24T06:17:56.940Z,5.97
2022-11-24T06:20:29.818Z,6.00
2022-11-24T06:22:58.839Z,5.97
2022-11-24T06:25:26.278Z,5.95
2022-11-24T06:27:52.737Z,5.87
2022-11-24T06:30:19.197Z,5.89
2022-11-24T06:32:49.373Z,5.89
2022-11-24T06:35:16.758Z,5.90
2022-11-24T06:37:43.104Z,5.84
2022-11-24T06:40:09.942Z,5.89
2022-11-24T06:42:37.235Z,5.88
2022-11-24T06:45:08.728Z,5.84
2022-11-24T06:47:35.889Z,5.81
2022-11-24T06:50:02.266Z,5.84
2022-11-24T06:52:28.611Z,5.86
2022-11-24T06:54:55.005Z,5.79
2022-11-24T06:57:21.467Z,5.84
2022-11-24T06:59:47.882Z,5.85
2022-11-24T07:02:14.256Z,5.78
2022-11-24T07:04:40.607Z,5.77
2022-11-24T07:07:07.024Z,5.84
2022-11-24T07:09:33.481Z,5.85
2022-11-24T07:12:00.096Z,5.91
2022-11-24T07:14:26.466Z,5.93
2022-11-24T07:16:52.842Z,5.92
2022-11-24T07:19:24.622Z,5.87
2022-11-24T07:21:51.484Z,5.90
2022-11-24T07:24:17.842Z,5.84
2022-11-24T07:26:44.182Z,5.86
2022-11-24T07:29:10.565Z,5.88
2022-11-24T07:31:36.933Z,5.86
2022-11-24T07:34:03.406Z,5.93
2022-11-24T07:36:29.752Z,5.94
2022-11-24T07:38:56.155Z,5.85
2022-11-24T07:41:22.675Z,5.90
2022-11-24T07:43:49.147Z,5.95
2022-11-24T07:46:17.422Z,5.95
2022-11-24T07:48:44.226Z,5.88
2022-11-24T07:51:10.875Z,5.91
2022-11-24T07:53:37.608Z,5.90
2022-11-24T07:56:06.135Z,5.95
2022-11-24T07:58:35.173Z,6.00
2022-11-24T08:01:11.143Z,6.08
2022-11-24T08:03:37.704Z,6.05
2022-11-24T08:08:50.557Z,6.06
2022-11-24T08:11:17.984Z,6.15
2022-11-24T08:13:44.467Z,6.09
2022-11-24T08:16:13.438Z,6.24
2022-11-24T08:18:39.962Z,6.16
2022-11-24T08:21:07.386Z,6.25
2022-11-24T08:23:34.916Z,6.30
2022-11-24T08:26:05.430Z,6.37
2022-11-24T08:28:32.997Z,6.38
2022-11-24T08:31:11.393Z,6.42
2022-11-24T08:33:38.404Z,6.52
2022-11-24T08:36:10.259Z,6.64
2022-11-24T08:38:37.313Z,6.58
2022-11-24T08:41:06.342Z,6.76
2022-11-24T08:43:33.348Z,6.78
2022-11-24T08:46:06.338Z,6.81
2022-11-24T08:48:33.211Z,6.72
2022-11-24T08:51:06.306Z,6.67
2022-11-24T08:53:32.704Z,6.70
2022-11-24T08:56:00.747Z,6.80
2022-11-24T08:58:28.702Z,6.73
2022-11-24T09:00:55.324Z,6.84
2022-11-24T09:03:21.758Z,6.87
2022-11-24T09:05:52.566Z,6.88
2022-11-24T09:08:19.301Z,6.96
2022-11-24T09:10:45.659Z,6.97
2022-11-24T09:13:12.041Z,7.09
2022-11-24T09:15:38.422Z,7.07
2022-11-24T09:18:05.376Z,7.20
2022-11-24T09:20:31.799Z,7.21
2022-11-24T09:22:58.141Z,7.17
2022-11-24T09:25:24.550Z,7.22
2022-11-24T09:27:51.088Z,7.09
2022-11-24T09:30:17.784Z,7.08
2022-11-24T09:32:44.124Z,7.07
2022-11-24T09:35:10.477Z,7.02
2022-11-24T09:37:37.133Z,7.14
2022-11-24T09:40:03.835Z,7.17
2022-11-24T09:42:53.381Z,7.34
2022-11-24T09:46:03.953Z,7.41
2022-11-24T09:48:34.945Z,7.23
2022-11-24T09:51:04.253Z,7.32
2022-11-24T09:53:41.311Z,7.30
2022-11-24T09:56:31.109Z,7.37
2022-11-24T09:59:02.888Z,7.41
2022-11-24T10:01:36.803Z,7.46
2022-11-24T10:04:06.619Z,7.46
2022-11-24T10:06:44.531Z,7.66
2022-11-24T10:09:13.809Z,7.56
2022-11-24T10:11:51.369Z,7.50
2022-11-24T10:14:50.770Z,7.69
2022-11-24T10:17:24.536Z,7.75
2022-11-24T10:20:19.996Z,7.98
2022-11-24T10:23:26.009Z,7.88
2022-11-24T10:26:12.695Z,7.84
2022-11-24T10:28:51.323Z,8.04
2022-11-24T10:31:34.817Z,8.04
2022-11-24T10:34:09.610Z,8.08
2022-11-24T10:36:47.044Z,8.04
2022-11-24T10:39:20.507Z,8.14
2022-11-24T10:42:00.123Z,8.09
2022-11-24T10:44:26.575Z,8.09
2022-11-24T10:46:53.043Z,8.12
2022-11-24T10:49:25.326Z,8.04
2022-11-24T10:52:05.674Z,8.22
2022-11-24T10:54:33.000Z,8.08
2022-11-24T10:56:59.461Z,8.07
2022-11-24T10:59:36.736Z,8.05
2022-11-24T11:02:39.058Z,8.05
2022-11-24T11:05:26.245Z,8.28
2022-11-24T11:08:16.002Z,8.26
2022-11-24T11:10:43.771Z,8.49
2022-11-24T11:13:21.862Z,8.44
2022-11-24T11:15:48.350Z,8.59
2022-11-24T11:18:17.701Z,8.56
2022-11-24T11:20:53.675Z,8.59
2022-11-24T11:23:22.439Z,8.70
2022-11-24T11:25:48.901Z,8.81
2022-11-24T11:28:18.696Z,8.93
2022-11-24T11:31:22.685Z,8.85
2022-11-24T11:34:03.843Z,8.89
2022-11-24T11:36:33.048Z,9.01
2022-11-24T11:38:59.879Z,8.74
2022-11-24T11:41:32.411Z,8.57
2022-11-24T11:44:21.558Z,8.58
2022-11-24T11:46:48.201Z,8.59
2022-11-24T11:49:14.778Z,8.60
2022-11-24T11:51:44.331Z,8.48
2022-11-24T11:54:26.098Z,8.47
2022-11-24T11:57:11.169Z,8.41
2022-11-24T12:00:04.518Z,8.35
2022-11-24T12:02:55.566Z,8.28
2022-11-24T12:05:31.544Z,8.34
2022-11-24T12:08:19.153Z,8.07
2022-11-24T12:10:59.413Z,8.04
2022-11-24T12:13:42.902Z,8.03
2022-11-24T12:16:49.526Z,7.99
2022-11-24T12:19:44.456Z,8.09
2022-11-24T12:22:21.915Z,8.19
2022-11-24T12:24:58.890Z,8.26
2022-11-24T12:27:49.509Z,8.23
2022-11-24T12:30:17.948Z,8.35
2022-11-24T12:33:18.210Z,8.41
2022-11-24T12:35:52.899Z,8.25
2022-11-24T12:38:34.645Z,8.23
2022-11-24T12:44:23.104Z,8.24
2022-11-24T12:47:29.390Z,8.23
2022-11-24T12:50:10.473Z,8.41
2022-11-24T12:52:46.614Z,8.32
2022-11-24T12:55:18.319Z,8.34
2022-11-24T12:58:11.310Z,8.31
2022-11-24T13:00:43.777Z,8.39
2022-11-24T13:03:30.447Z,8.18
2022-11-24T13:06:00.478Z,8.16
2022-11-24T13:08:28.910Z,8.22
2022-11-24T13:11:25.295Z,8.25
2022-11-24T13:14:01.431Z,8.44
2022-11-24T13:19:21.148Z,8.46
2022-11-24T13:22:07.053Z,8.30
2022-11-24T13:24:38.988Z,8.32
2022-11-24T13:27:15.185Z,8.31
2022-11-24T13:29:51.563Z,8.29
2022-11-24T13:32:18.166Z,8.16
2022-11-24T13:34:49.559Z,8.04
2022-11-24T13:37:31.377Z,8.15
2022-11-24T13:40:22.480Z,8.06
2022-11-24T13:42:55.185Z,7.96
2022-11-24T13:45:41.089Z,7.96
2022-11-24T13:48:19.854Z,8.00
2022-11-24T13:50:53.917Z,7.93
2022-11-24T13:53:46.741Z,7.79
2022-11-24T13:56:13.032Z,7.78
2022-11-24T13:58:41.635Z,7.75
2022-11-24T14:01:28.363Z,7.62
2022-11-24T14:04:28.515Z,7.53
2022-11-24T14:06:53.111Z,7.42
2022-11-24T14:09:25.958Z,7.37
2022-11-24T14:12:04.358Z,7.28
2022-11-24T14:14:30.793Z,7.25
2022-11-24T14:17:27.650Z,7.17
2022-11-24T14:19:58.446Z,7.05
2022-11-24T14:22:41.387Z,6.99
2022-11-24T14:25:32.295Z,6.94
2022-11-24T14:28:00.174Z,6.95
2022-11-24T14:30:26.938Z,6.80
2022-11-24T14:32:58.737Z,6.86
2022-11-24T14:35:31.244Z,6.78
2022-11-24T14:37:58.545Z,6.72
2022-11-24T14:40:46.090Z,6.73
2022-11-24T14:43:30.206Z,6.63
2022-11-24T14:46:01.178Z,6.72
2022-11-24T14:48:36.904Z,6.71
2022-11-24T14:51:12.757Z,6.71
2022-11-24T14:53:45.166Z,6.57
2022-11-24T14:56:33.841Z,6.61
2022-11-24T14:59:00.353Z,6.48
2022-11-24T15:01:26.719Z,6.49
2022-11-24T15:04:17.876Z,6.49
2022-11-24T15:07:11.567Z,6.57
2022-11-24T15:09:57.674Z,6.43
2022-11-24T15:12:38.640Z,6.54
2022-11-24T15:15:13.774Z,6.45
2022-11-24T15:17:54.105Z,6.39
2022-11-24T15:20:34.993Z,6.25
2022-11-24T15:23:13.343Z,6.26
2022-11-24T15:25:39.778Z,6.37
2022-11-24T15:28:07.628Z,6.15
2022-11-24T15:30:35.506Z,6.02
2022-11-24T15:33:02.700Z,5.87
2022-11-24T15:35:31.782Z,5.71
2022-11-24T15:37:58.561Z,5.66
2022-11-24T15:40:24.980Z,5.61
2022-11-24T15:42:53.886Z,5.42
2022-11-24T15:45:22.273Z,5.29
2022-11-24T15:47:48.627Z,5.27
2022-11-24T15:50:15.549Z,5.09
2022-11-24T15:52:42.559Z,5.08
2022-11-24T15:55:21.034Z,5.12
2022-11-24T15:57:48.746Z,5.06
2022-11-24T16:00:20.613Z,4.86
2022-11-24T16:02:47.978Z,4.76
2022-11-24T16:05:15.706Z,4.71
2022-11-24T16:07:42.349Z,4.71
2022-11-24T16:10:22.862Z,4.63
2022-11-24T16:12:49.199Z,4.52
2022-11-24T16:15:15.762Z,4.48
2022-11-24T16:17:42.111Z,4.51
2022-11-24T16:20:08.969Z,4.52
2022-11-24T16:22:35.390Z,4.45
2022-11-24T16:25:03.982Z,4.42
2022-11-24T16:27:31.092Z,4.37
2022-11-24T16:29:57.540Z,4.30
2022-11-24T16:32:23.890Z,4.34
2022-11-24T16:34:50.243Z,4.37
2022-11-24T16:37:16.612Z,4.28
2022-11-24T16:39:49.672Z,4.33
2022-11-24T16:42:16.496Z,4.25
2022-11-24T16:44:43.041Z,4.18
2022-11-24T16:47:09.736Z,4.18
2022-11-24T16:49:36.101Z,4.19
2022-11-24T16:52:02.465Z,4.15
2022-11-24T16:54:28.799Z,4.18
2022-11-24T16:56:55.191Z,4.00
2022-11-24T16:59:21.555Z,3.82
2022-11-24T17:01:50.499Z,3.74
2022-11-24T17:04:17.845Z,3.77
2022-11-24T17:06:44.213Z,3.93
2022-11-24T17:09:10.691Z,3.88
2022-11-24T17:11:37.140Z,3.84
2022-11-24T17:14:03.745Z,3.74
2022-11-24T17:16:30.601Z,3.71
2022-11-24T17:18:58.583Z,3.71
2022-11-24T17:21:27.571Z,3.74
2022-11-24T17:23:55.655Z,3.70
2022-11-24T17:26:22.120Z,3.70
2022-11-24T17:28:48.591Z,3.70
2022-11-24T17:31:31.979Z,3.70
2022-11-24T17:34:00.149Z,3.78
2022-11-24T17:36:27.676Z,3.96
2022-11-24T17:38:54.327Z,4.12
2022-11-24T17:41:22.021Z,4.45
2022-11-24T17:43:52.895Z,4.56
2022-11-24T17:46:19.932Z,4.74
2022-11-24T17:48:46.882Z,4.85
2022-11-24T17:51:15.666Z,5.02
2022-11-24T17:53:43.902Z,5.09
2022-11-24T17:56:15.229Z,5.10
2022-11-24T17:58:43.378Z,5.34
2022-11-24T18:01:10.789Z,5.42
2022-11-24T18:03:39.052Z,5.45
2022-11-24T18:06:07.145Z,5.45
2022-11-24T18:08:34.555Z,5.61
2022-11-24T18:11:08.093Z,5.48
2022-11-24T18:13:55.795Z,5.62
2022-11-24T18:16:21.564Z,5.60
2022-11-24T18:18:50.421Z,5.57
2022-11-24T18:21:17.808Z,5.62
2022-11-24T18:23:44.764Z,5.65
2022-11-24T18:26:14.789Z,5.73
2022-11-24T18:28:42.135Z,5.87
2022-11-24T18:31:12.098Z,5.81
2022-11-24T18:33:42.936Z,5.83
2022-11-24T18:36:13.423Z,5.70
2022-11-24T18:38:39.880Z,5.63
2022-11-24T18:41:06.620Z,5.62
2022-11-24T18:43:35.749Z,5.56
2022-11-24T18:46:07.233Z,5.48
2022-11-24T18:48:34.549Z,5.46
2022-11-24T18:51:01.001Z,5.43
2022-11-24T18:53:27.624Z,5.42
2022-11-24T18:55:54.851Z,5.25
2022-11-24T18:58:21.252Z,5.16
2022-11-24T19:00:47.605Z,5.15
2022-11-24T19:03:14.042Z,5.02
2022-11-24T19:05:41.111Z,5.04
2022-11-24T19:08:07.500Z,4.94
2022-11-24T19:10:38.275Z,4.97
2022-11-24T19:13:05.046Z,5.08
2022-11-24T19:15:35.438Z,5.05
2022-11-24T19:18:02.054Z,4.99
2022-11-24T19:20:28.676Z,5.00
2022-11-24T19:22:55.042Z,4.85
2022-11-24T19:25:21.431Z,4.72
2022-11-24T19:27:48.039Z,4.59
2022-11-24T19:30:16.145Z,4.53
2022-11-24T19:32:42.674Z,4.47
2022-11-24T19:35:09.187Z,4.39
2022-11-24T19:37:35.560Z,4.32
2022-11-24T19:40:02.431Z,4.27
2022-11-24T19:42:28.787Z,4.11
2022-11-24T19:44:56.861Z,4.39
2022-11-24T19:47:23.423Z,4.20
2022-11-24T19:49:50.234Z,4.07
2022-11-24T19:52:16.594Z,4.11
2022-11-24T19:54:43.205Z,4.14
2022-11-24T19:57:09.570Z,4.13
2022-11-24T19:59:35.909Z,4.15
2022-11-24T20:02:02.659Z,4.20
2022-11-24T20:04:29.494Z,4.13
2022-11-24T20:06:55.838Z,4.08
2022-11-24T20:09:22.200Z,4.03
2022-11-24T20:11:49.023Z,4.03
2022-11-24T20:14:18.214Z,4.08
2022-11-24T20:16:46.485Z,4.00
2022-11-24T20:19:14.805Z,3.99
2022-11-24T20:21:46.048Z,4.11
2022-11-24T20:24:15.717Z,4.08
2022-11-24T20:26:45.175Z,4.04
2022-11-24T20:29:13.315Z,4.08
2022-11-24T20:31:43.479Z,4.11
2022-11-24T20:34:10.483Z,4.03
2022-11-24T20:36:39.779Z,4.11
2022-11-24T20:39:08.978Z,4.12
2022-11-24T20:41:37.373Z,4.16
2022-11-24T20:44:07.227Z,4.29
2022-11-24T20:46:36.459Z,4.27
2022-11-24T20:49:04.526Z,4.24
2022-11-24T20:51:33.826Z,4.15
2022-11-24T20:54:04.380Z,4.23
2022-11-24T20:56:33.760Z,4.15
2022-11-24T20:59:00.720Z,4.13
2022-11-24T21:01:38.356Z,4.06
2022-11-24T21:04:08.251Z,4.28
2022-11-24T21:06:35.186Z,4.15
2022-11-24T21:09:04.132Z,4.10
2022-11-24T21:11:31.626Z,4.08
2022-11-24T21:13:58.706Z,3.97
2022-11-24T21:16:29.080Z,3.86
2022-11-24T21:19:04.254Z,3.91
2022-11-24T21:21:34.427Z,3.77
2022-11-24T21:24:05.525Z,3.70
2022-11-24T21:26:35.701Z,3.64
2022-11-24T21:29:02.178Z,3.55
2022-11-24T21:31:28.669Z,3.60
2022-11-24T21:33:55.430Z,3.54
2022-11-24T21:36:24.514Z,3.53
2022-11-24T21:38:56.166Z,3.60
2022-11-24T21:41:23.986Z,3.68
2022-11-24T21:43:51.884Z,3.49
2022-11-24T21:46:18.332Z,3.36
2022-11-24T21:48:44.795Z,3.29
2022-11-24T21:51:16.984Z,3.31
2022-11-24T21:53:44.448Z,3.27
2022-11-24T21:56:16.876Z,3.38
2022-11-24T21:58:45.587Z,3.33
2022-11-24T22:01:12.437Z,3.29
2022-11-24T22:03:38.836Z,3.19
2022-11-24T22:06:05.454Z,3.21
2022-11-24T22:08:32.029Z,3.16
2022-11-24T22:11:02.093Z,3.11
2022-11-24T22:13:28.892Z,3.19
2022-11-24T22:16:03.082Z,3.20
2022-11-24T22:18:31.826Z,3.01
2022-11-24T22:20:58.327Z,3.09
2022-11-24T22:23:24.883Z,3.05
2022-11-24T22:25:51.236Z,2.99
2022-11-24T22:28:17.613Z,3.02
2022-11-24T22:30:43.989Z,3.08
2022-11-24T22:33:10.329Z,3.14
2022-11-24T22:35:36.717Z,2.95
2022-11-24T22:38:03.074Z,2.95
2022-11-24T22:40:29.460Z,3.01
2022-11-24T22:42:55.829Z,2.97
2022-11-24T22:45:22.201Z,3.11
2022-11-24T22:47:52.944Z,2.99
2022-11-24T22:50:19.296Z,3.20
2022-11-24T22:52:45.644Z,3.24
2022-11-24T22:55:11.997Z,3.30
2022-11-24T22:57:38.325Z,3.63
2022-11-24T23:00:05.219Z,3.61
2022-11-24T23:02:31.631Z,3.76
2022-11-24T23:04:57.998Z,3.77
2022-11-24T23:07:24.359Z,3.89
2022-11-24T23:09:50.737Z,4.12
2022-11-24T23:12:18.316Z,4.01
2022-11-24T23:14:44.667Z,4.00
2022-11-24T23:17:11.050Z,3.97
2022-11-24T23:19:37.389Z,3.91
2022-11-24T23:22:03.719Z,3.89
2022-11-24T23:24:30.169Z,3.81
2022-11-24T23:26:56.577Z,3.99
2022-11-24T23:29:22.939Z,4.00
2022-11-24T23:31:49.310Z,4.17
2022-11-24T23:34:15.772Z,4.13
2022-11-24T23:36:42.221Z,4.01
2022-11-24T23:39:12.429Z,4.00
2022-11-24T23:41:39.067Z,3.93
2022-11-24T23:44:06.022Z,3.90
2022-11-24T23:46:32.984Z,3.95
2022-11-24T23:48:59.624Z,3.82
2022-11-24T23:51:27.128Z,3.72
2022-11-24T23:53:54.337Z,3.53
2022-11-24T23:56:23.624Z,3.57
2022-11-24T23:58:50.662Z,3.44
